Time;durP1;ratioP1;P1;durP2;ratioP2;P2;SDS_P1;SDS_P2;PMS_P1;PMS_P2;Temp;Humidity;BMP_temperature;BMP_pressure;BME280_temperature;BME280_humidity;BME280_pressure;Samples;Min_cycle;Max_cycle;Signal;HPM_P1;HPM_P2
2022/01/17 00:01:21;;;;;;;40.60;36.60;;;;;;;-0.40;87.22;98075.58;109724;1273;22461;-79
2022/01/17 00:03:54;;;;;;;36.70;33.40;;;;;;;-0.38;87.50;98070.25;109579;1274;137367;-69
2022/01/17 00:06:28;;;;;;;38.60;34.70;;;;;;;-0.39;88.13;98063.08;109714;1273;22405;-69
2022/01/17 00:09:00;;;;;;;34.20;31.00;;;;;;;-0.35;88.90;98061.38;109720;1273;22531;-60
2022/01/17 00:11:41;;;;;;;31.80;28.80;;;;;;;-0.21;89.49;98060.92;109707;1273;22599;-60
2022/01/17 00:14:16;;;;;;;33.30;30.20;;;;;;;-0.16;88.66;98056.66;109694;1274;22536;-68
2022/01/17 00:17:04;;;;;;;34.80;31.50;;;;;;;-0.20;88.24;98056.80;109708;1273;23260;-67
2022/01/17 00:19:41;;;;;;;45.20;36.70;;;;;;;-0.28;88.64;98054.39;109686;1273;23381;-67
2022/01/17 00:22:21;;;;;;;38.80;34.40;;;;;;;-0.31;88.66;98055.53;109692;1274;22485;-66
2022/01/17 00:24:54;;;;;;;33.90;30.60;;;;;;;-0.33;88.71;98049.28;109605;1274;22377;-66
2022/01/17 00:27:22;;;;;;;42.40;38.00;;;;;;;-0.35;88.67;98046.54;109683;1272;23306;-68
2022/01/17 00:29:56;;;;;;;41.00;37.00;;;;;;;-0.35;88.97;98037.58;109708;1274;22423;-69
2022/01/17 00:32:31;;;;;;;39.70;35.70;;;;;;;-0.36;89.18;98048.17;109593;1273;137986;-67
2022/01/17 00:35:09;;;;;;;32.50;29.20;;;;;;;-0.38;89.21;98047.56;109702;1273;23168;-69
2022/01/17 00:37:38;;;;;;;35.70;31.70;;;;;;;-0.38;89.55;98046.14;109590;1274;22569;-66
2022/01/17 00:40:11;;;;;;;34.20;30.80;;;;;;;-0.39;90.22;98032.49;109689;1273;23085;-66
2022/01/17 00:42:43;;;;;;;37.50;34.10;;;;;;;-0.36;89.34;98026.27;109700;1274;22506;-68
2022/01/17 00:45:19;;;;;;;35.60;32.20;;;;;;;-0.36;89.40;98036.16;109690;1274;22735;-67
2022/01/17 00:47:50;;;;;;;29.60;27.00;;;;;;;-0.36;89.21;98030.88;109707;1274;22557;-66
2022/01/17 00:50:18;;;;;;;29.90;26.90;;;;;;;-0.36;89.24;98033.73;109685;1273;23200;-69
2022/01/17 00:52:46;;;;;;;30.70;27.70;;;;;;;-0.38;89.94;98034.81;109707;1274;22692;-66
2022/01/17 00:55:14;;;;;;;32.30;29.50;;;;;;;-0.35;89.57;98023.61;109687;1271;22579;-67
2022/01/17 00:57:42;;;;;;;31.80;29.10;;;;;;;-0.34;89.63;98012.20;109690;1273;22373;-66
2022/01/17 01:00:13;;;;;;;35.40;32.20;;;;;;;-0.35;89.78;98006.02;109685;1273;23625;-66
2022/01/17 01:02:42;;;;;;;29.00;26.30;;;;;;;-0.34;89.19;98009.76;109697;1274;22454;-66
2022/01/17 01:05:10;;;;;;;26.60;24.20;;;;;;;-0.32;89.64;98015.27;109535;1274;138846;-66
2022/01/17 01:07:39;;;;;;;27.70;25.10;;;;;;;-0.31;89.38;98011.16;109682;1274;22583;-65
2022/01/17 01:10:10;;;;;;;32.00;29.20;;;;;;;-0.29;89.28;97999.77;109679;1273;22487;-65
2022/01/17 01:12:43;;;;;;;33.70;30.50;;;;;;;-0.28;89.11;98007.73;109696;1273;23206;-66
2022/01/17 01:15:20;;;;;;;27.40;24.90;;;;;;;-0.30;89.76;97997.95;109687;1274;22502;-66
2022/01/17 01:28:45;;;;;;;25.20;22.90;;;;;;;-0.27;90.07;97978.80;109700;1274;23246;-65
2022/01/17 01:31:18;;;;;;;26.50;24.10;;;;;;;-0.27;90.36;97979.25;109693;1274;23215;-65
2022/01/17 01:33:54;;;;;;;24.40;22.30;;;;;;;-0.25;89.71;97968.73;109679;1274;22552;-65
2022/01/17 01:36:27;;;;;;;28.30;25.70;;;;;;;-0.21;89.56;97980.48;109689;1274;23181;-66
2022/01/17 01:38:55;;;;;;;27.00;24.60;;;;;;;-0.20;89.99;97966.35;109680;1274;22975;-65
2022/01/17 01:41:23;;;;;;;24.70;22.40;;;;;;;-0.21;90.38;97971.95;109678;1274;22414;-65
2022/01/17 01:43:51;;;;;;;27.10;24.70;;;;;;;-0.20;90.34;97964.66;109704;1273;22283;-65
2022/01/17 01:46:20;;;;;;;25.80;23.40;;;;;;;-0.20;90.18;97954.23;109701;1273;22592;-65
2022/01/17 01:48:48;;;;;;;25.70;23.40;;;;;;;-0.18;89.87;97952.36;109694;1272;22539;-65
2022/01/17 01:51:16;;;;;;;29.20;26.60;;;;;;;-0.17;89.86;97948.84;109689;1273;22456;-65
2022/01/17 01:53:44;;;;;;;28.10;25.50;;;;;;;-0.17;89.59;97938.61;109698;1274;22448;-65
2022/01/17 01:56:12;;;;;;;27.60;24.90;;;;;;;-0.17;89.82;97933.91;109690;1274;22539;-65
2022/01/17 01:58:40;;;;;;;27.30;24.70;;;;;;;-0.17;89.79;97929.84;109684;1274;22662;-66
2022/01/17 02:01:12;;;;;;;26.90;24.40;;;;;;;-0.15;90.13;97931.23;109696;1274;22460;-66
2022/01/17 02:03:46;;;;;;;28.40;25.80;;;;;;;-0.14;89.98;97929.02;109604;1274;22566;-66
2022/01/17 02:06:20;;;;;;;30.00;27.30;;;;;;;-0.12;90.04;97918.08;109689;1273;22451;-65
2022/01/17 02:08:53;;;;;;;29.90;27.10;;;;;;;-0.13;89.90;97914.98;109717;1273;23185;-65
2022/01/17 02:11:21;;;;;;;26.90;24.50;;;;;;;-0.12;90.06;97918.08;109708;1273;22521;-66
2022/01/17 02:13:55;;;;;;;27.30;25.00;;;;;;;-0.11;90.14;97910.85;109708;1274;22385;-65
2022/01/17 02:16:30;;;;;;;27.90;25.30;;;;;;;-0.10;90.30;97901.97;109681;1274;23241;-66
2022/01/17 02:19:09;;;;;;;30.70;28.00;;;;;;;-0.08;90.50;97904.55;109558;1274;137724;-64
2022/01/17 02:21:46;;;;;;;27.30;24.80;;;;;;;-0.09;90.28;97900.77;109700;1273;23178;-65
2022/01/17 02:24:20;;;;;;;26.70;24.20;;;;;;;-0.08;90.06;97889.84;109685;1274;23319;-66
2022/01/17 02:26:50;;;;;;;25.00;22.70;;;;;;;-0.04;89.47;97898.37;109703;1274;23264;-66
2022/01/17 02:29:19;;;;;;;26.20;23.80;;;;;;;-0.02;89.53;97883.95;109192;1274;546457;-66
2022/01/17 02:31:48;;;;;;;26.30;24.00;;;;;;;-0.02;89.45;97869.57;109697;1274;22259;-67
2022/01/17 02:34:16;;;;;;;25.50;23.20;;;;;;;-0.02;89.34;97864.61;109677;1274;22516;-67
2022/01/17 02:36:45;;;;;;;26.20;23.80;;;;;;;-0.01;89.67;97860.59;109679;1274;22461;-67
2022/01/17 02:39:14;;;;;;;24.10;22.00;;;;;;;0.02;89.62;97853.02;109707;1273;22523;-67
2022/01/17 02:41:46;;;;;;;23.80;21.60;;;;;;;0.03;89.51;97847.76;109698;1274;22572;-67
2022/01/17 02:44:14;;;;;;;24.50;22.20;;;;;;;0.05;89.61;97856.79;109692;1274;22585;-68
2022/01/17 02:46:42;;;;;;;22.30;20.10;;;;;;;0.04;89.91;97848.57;109695;1274;22454;-66
2022/01/17 02:49:10;;;;;;;23.20;20.60;;;;;;;0.05;89.61;97850.22;109698;1274;22462;-68
2022/01/17 02:51:40;;;;;;;19.40;17.40;;;;;;;0.08;89.53;97841.60;109689;1274;22448;-67
2022/01/17 02:54:08;;;;;;;21.70;19.60;;;;;;;0.11;89.54;97831.23;109678;1274;22622;-67
2022/01/17 02:56:36;;;;;;;21.00;19.20;;;;;;;0.12;89.53;97831.20;109676;1274;22311;-66
2022/01/17 02:59:04;;;;;;;19.20;17.40;;;;;;;0.15;89.51;97846.03;109634;1273;22525;-66
2022/01/17 03:01:33;;;;;;;18.50;16.70;;;;;;;0.18;89.25;97844.63;109696;1274;22575;-66
2022/01/17 03:04:04;;;;;;;20.60;18.70;;;;;;;0.21;89.15;97847.83;109712;1272;23642;-66
2022/01/17 03:06:32;;;;;;;18.10;16.30;;;;;;;0.23;89.20;97842.61;109632;1274;23425;-66
2022/01/17 03:09:00;;;;;;;18.10;16.50;;;;;;;0.23;89.22;97838.95;109693;1274;22449;-64
2022/01/17 03:11:29;;;;;;;18.50;16.80;;;;;;;0.25;89.33;97837.57;109715;1274;22485;-64
2022/01/17 03:13:58;;;;;;;18.20;16.60;;;;;;;0.29;89.07;97848.46;109704;1274;22526;-66
2022/01/17 03:16:32;;;;;;;19.80;17.90;;;;;;;0.33;89.01;97848.59;109715;1274;22415;-67
2022/01/17 03:19:00;;;;;;;21.60;19.70;;;;;;;0.34;88.79;97843.16;109700;1274;23166;-66
2022/01/17 03:21:32;;;;;;;20.50;18.50;;;;;;;0.34;88.94;97845.05;109703;1272;23207;-65
2022/01/17 03:24:00;;;;;;;18.70;17.10;;;;;;;0.34;89.00;97840.02;109715;1274;22567;-66
2022/01/17 03:26:30;;;;;;;18.70;17.00;;;;;;;0.35;88.92;97834.47;109685;1272;22386;-66
2022/01/17 03:29:00;;;;;;;17.40;15.70;;;;;;;0.35;89.09;97836.13;109693;1273;22508;-65
2022/01/17 03:31:28;;;;;;;19.20;17.50;;;;;;;0.37;88.88;97834.84;109677;1274;22496;-65
2022/01/17 03:33:56;;;;;;;18.10;16.50;;;;;;;0.34;89.15;97837.42;109688;1273;22239;-65
2022/01/17 03:36:25;;;;;;;19.60;17.80;;;;;;;0.31;89.43;97832.14;109616;1274;22502;-66
2022/01/17 03:38:54;;;;;;;17.10;15.30;;;;;;;0.31;89.23;97836.09;109698;1274;23274;-66
2022/01/17 03:41:23;;;;;;;20.20;18.30;;;;;;;0.32;89.57;97831.56;109688;1274;22486;-65
2022/01/17 03:43:51;;;;;;;18.80;17.10;;;;;;;0.29;89.71;97827.15;109616;1274;22674;-67
2022/01/17 03:46:19;;;;;;;18.20;16.50;;;;;;;0.25;89.83;97821.61;109673;1274;23313;-66
2022/01/17 03:48:47;;;;;;;20.10;18.30;;;;;;;0.25;89.85;97827.27;109696;1274;22465;-66
2022/01/17 03:51:15;;;;;;;19.50;17.80;;;;;;;0.24;89.99;97813.27;109700;1274;23150;-66
2022/01/17 03:53:43;;;;;;;19.40;17.70;;;;;;;0.22;90.33;97819.11;109691;1273;22549;-64
2022/01/17 03:56:11;;;;;;;20.60;18.40;;;;;;;0.19;90.13;97813.38;109716;1273;22972;-68
2022/01/17 03:58:39;;;;;;;19.30;17.50;;;;;;;0.19;90.44;97813.91;109690;1274;22536;-66
2022/01/17 04:01:09;;;;;;;18.30;16.50;;;;;;;0.19;90.48;97810.10;109711;1274;22510;-66
2022/01/17 04:03:38;;;;;;;20.20;18.30;;;;;;;0.20;90.31;97807.00;109700;1273;22546;-67
2022/01/17 04:06:06;;;;;;;19.60;17.70;;;;;;;0.21;90.49;97822.27;109694;1274;22416;-67
2022/01/17 04:08:35;;;;;;;20.20;18.30;;;;;;;0.20;90.57;97817.65;109705;1274;22552;-68
2022/01/17 04:11:03;;;;;;;20.90;19.00;;;;;;;0.18;90.74;97817.98;109695;1273;22424;-68
2022/01/17 04:13:32;;;;;;;19.70;17.90;;;;;;;0.15;91.08;97811.45;109704;1274;22919;-68
2022/01/17 04:16:01;;;;;;;19.00;17.30;;;;;;;0.16;91.13;97811.41;109698;1274;22397;-67
2022/01/17 04:18:30;;;;;;;19.50;17.70;;;;;;;0.16;91.36;97800.71;109706;1274;23134;-66
2022/01/17 04:21:01;;;;;;;19.00;17.20;;;;;;;0.16;91.37;97807.77;109700;1273;22495;-68
2022/01/17 04:23:30;;;;;;;19.60;17.80;;;;;;;0.17;91.52;97805.55;109672;1273;22461;-68
2022/01/17 04:25:58;;;;;;;21.50;19.60;;;;;;;0.19;91.19;97811.84;109679;1274;22454;-68
2022/01/17 04:28:26;;;;;;;22.80;20.70;;;;;;;0.18;91.52;97816.91;109705;1272;22386;-69
2022/01/17 04:30:54;;;;;;;22.70;20.50;;;;;;;0.20;90.95;97823.91;109697;1273;22412;-68
2022/01/17 04:33:22;;;;;;;21.10;18.90;;;;;;;0.22;91.39;97817.48;109704;1273;22443;-66
2022/01/17 04:35:50;;;;;;;20.30;18.30;;;;;;;0.26;90.90;97810.39;109702;1274;22529;-67
2022/01/17 04:38:19;;;;;;;22.50;20.10;;;;;;;0.30;90.82;97807.35;109688;1274;22479;-67
2022/01/17 04:40:50;;;;;;;21.50;19.50;;;;;;;0.32;91.09;97815.33;109677;1273;22419;-68
2022/01/17 04:45:50;;;;;;;20.90;19.00;;;;;;;0.33;90.89;97807.56;109706;1273;22469;-67
2022/01/17 04:48:18;;;;;;;21.90;19.80;;;;;;;0.36;90.83;97805.83;109695;1274;22456;-67
2022/01/17 04:50:46;;;;;;;21.70;19.60;;;;;;;0.40;90.64;97795.42;109693;1273;23187;-67
2022/01/17 04:53:17;;;;;;;24.00;21.70;;;;;;;0.43;90.81;97797.11;109681;1273;23344;-67
2022/01/17 04:55:46;;;;;;;23.90;21.60;;;;;;;0.45;90.59;97795.30;109714;1273;22460;-67
2022/01/17 04:58:15;;;;;;;23.70;21.50;;;;;;;0.45;90.55;97787.51;109693;1274;22461;-67
2022/01/17 05:00:47;;;;;;;23.30;21.10;;;;;;;0.47;90.66;97779.47;109681;1274;22387;-67
2022/01/17 05:03:18;;;;;;;23.90;20.60;;;;;;;0.47;90.52;97783.14;109667;1274;22493;-68
2022/01/17 05:05:46;;;;;;;22.10;19.80;;;;;;;0.48;90.63;97775.89;109682;1274;22456;-67
2022/01/17 05:08:15;;;;;;;24.00;21.70;;;;;;;0.52;90.52;97771.40;109696;1272;22607;-68
2022/01/17 05:10:49;;;;;;;24.90;22.50;;;;;;;0.54;90.29;97763.42;109620;1274;22540;-68
2022/01/17 05:13:22;;;;;;;24.20;21.80;;;;;;;0.53;90.34;97756.95;109687;1273;23236;-67
2022/01/17 05:16:07;;;;;;;23.50;21.20;;;;;;;0.54;90.35;97746.73;109685;1274;23353;-67
2022/01/17 05:21:03;;;;;;;25.50;23.10;;;;;;;0.61;89.90;97746.17;109689;1274;22457;-68
2022/01/17 05:23:31;;;;;;;26.10;23.60;;;;;;;0.63;89.98;97744.72;109709;1274;23158;-68
2022/01/17 05:26:00;;;;;;;25.00;22.70;;;;;;;0.62;89.95;97733.20;109699;1273;22321;-68
2022/01/17 05:28:27;;;;;;;22.00;20.00;;;;;;;0.63;89.82;97733.05;109698;1274;23295;-68
2022/01/17 05:30:55;;;;;;;22.20;20.10;;;;;;;0.65;89.80;97730.45;109730;1273;23111;-68
2022/01/17 05:33:24;;;;;;;23.90;21.60;;;;;;;0.67;89.83;97728.56;109723;1274;22543;-68
2022/01/17 05:35:51;;;;;;;23.20;21.00;;;;;;;0.68;89.81;97727.84;109698;1273;22633;-66
2022/01/17 05:38:19;;;;;;;22.50;20.40;;;;;;;0.67;89.75;97714.73;109698;1273;22250;-67
2022/01/17 05:40:47;;;;;;;21.90;19.80;;;;;;;0.64;89.96;97701.73;109701;1273;22782;-66
2022/01/17 05:43:15;;;;;;;21.30;19.20;;;;;;;0.63;89.98;97702.15;109683;1273;23337;-68
2022/01/17 05:45:43;;;;;;;22.20;20.10;;;;;;;0.66;89.98;97701.83;109693;1273;22458;-68
2022/01/17 05:48:11;;;;;;;23.30;21.20;;;;;;;0.67;90.07;97699.55;109708;1273;22451;-69
2022/01/17 05:50:39;;;;;;;23.70;21.60;;;;;;;0.68;89.96;97697.02;109702;1274;22758;-69
2022/01/17 05:53:07;;;;;;;22.90;20.80;;;;;;;0.66;89.84;97682.15;109704;1274;22372;-69
2022/01/17 05:55:35;;;;;;;23.60;21.50;;;;;;;0.67;89.85;97674.73;109687;1273;22558;-68
2022/01/17 05:58:03;;;;;;;25.20;23.00;;;;;;;0.71;89.79;97680.21;109689;1272;22467;-68
2022/01/17 06:00:31;;;;;;;25.00;22.80;;;;;;;0.73;89.75;97677.09;109681;1274;22384;-69
2022/01/17 06:03:00;;;;;;;24.10;21.90;;;;;;;0.73;89.66;97683.59;109714;1273;22440;-68
2022/01/17 06:05:28;;;;;;;25.30;23.00;;;;;;;0.76;89.59;97672.44;109696;1273;22393;-67
2022/01/17 06:07:56;;;;;;;25.00;22.70;;;;;;;0.79;89.30;97677.16;109705;1273;22589;-68
2022/01/17 06:10:24;;;;;;;25.40;23.00;;;;;;;0.83;89.09;97674.25;109690;1273;22394;-69
2022/01/17 06:12:52;;;;;;;25.50;23.00;;;;;;;0.83;89.24;97676.54;109695;1274;22574;-69
2022/01/17 06:15:20;;;;;;;23.50;21.50;;;;;;;0.86;89.19;97676.09;109688;1273;22521;-70
2022/01/17 06:17:48;;;;;;;22.60;20.30;;;;;;;0.89;88.81;97675.72;109694;1272;22546;-69
2022/01/17 06:20:16;;;;;;;23.00;20.70;;;;;;;0.96;88.62;97670.20;109680;1274;22568;-71
2022/01/17 06:22:44;;;;;;;23.60;21.40;;;;;;;1.00;88.56;97677.48;109673;1272;23180;-69
2022/01/17 06:25:12;;;;;;;22.60;20.20;;;;;;;1.02;88.50;97674.59;109701;1273;23017;-69
2022/01/17 06:27:40;;;;;;;20.00;17.80;;;;;;;1.06;87.99;97653.20;109665;1273;22420;-70
2022/01/17 06:30:13;;;;;;;22.00;19.80;;;;;;;1.10;87.72;97642.81;109679;1274;22528;-70
2022/01/17 06:32:42;;;;;;;20.40;18.50;;;;;;;1.13;87.57;97645.51;109594;1273;22562;-69
2022/01/17 06:35:12;;;;;;;20.00;18.20;;;;;;;1.15;87.23;97640.02;109689;1272;23007;-70
2022/01/17 06:37:40;;;;;;;21.50;19.50;;;;;;;1.17;87.32;97632.98;109666;1274;22443;-72
2022/01/17 06:40:08;;;;;;;23.90;21.60;;;;;;;1.19;87.37;97623.89;109676;1274;22585;-69
2022/01/17 06:42:36;;;;;;;22.10;20.20;;;;;;;1.22;87.22;97615.27;109684;1273;22493;-73
2022/01/17 06:45:05;;;;;;;23.10;20.90;;;;;;;1.27;86.99;97621.55;109678;1273;22516;-73
2022/01/17 06:47:35;;;;;;;27.90;25.40;;;;;;;1.29;86.92;97621.89;109657;1273;22566;-72
2022/01/17 06:50:04;;;;;;;126.20;31.20;;;;;;;1.29;86.89;97635.69;109668;1273;22421;-72
2022/01/17 06:52:34;;;;;;;28.60;21.70;;;;;;;1.29;86.46;97639.63;109713;1273;23117;-71
2022/01/17 06:55:07;;;;;;;66.90;33.80;;;;;;;1.29;86.44;97621.20;109672;1273;22430;-72
2022/01/17 06:57:36;;;;;;;47.00;29.20;;;;;;;1.26;86.78;97609.39;109666;1272;23153;-73
2022/01/17 07:00:06;;;;;;;30.40;27.20;;;;;;;1.22;86.89;97598.35;109678;1274;23184;-72
2022/01/17 07:02:34;;;;;;;35.60;32.20;;;;;;;1.18;87.09;97581.36;109688;1273;23204;-72
2022/01/17 07:05:04;;;;;;;24.70;22.20;;;;;;;1.15;87.10;97575.15;109691;1273;22420;-72
2022/01/17 07:07:32;;;;;;;25.10;22.60;;;;;;;1.08;87.41;97571.20;109681;1274;22415;-71
2022/01/17 07:10:04;;;;;;;81.50;29.90;;;;;;;1.00;87.63;97563.50;109691;1273;22443;-71
2022/01/17 07:12:36;;;;;;;26.80;22.10;;;;;;;0.92;88.09;97571.77;109687;1274;22505;-68
2022/01/17 07:15:05;;;;;;;32.50;23.60;;;;;;;0.85;88.42;97594.06;109702;1272;22465;-69
2022/01/17 07:17:34;;;;;;;88.20;27.00;;;;;;;0.78;88.73;97604.20;109507;1274;22456;-70
2022/01/17 07:20:03;;;;;;;23.70;21.50;;;;;;;0.71;88.99;97614.33;109694;1272;22563;-68
2022/01/17 07:22:32;;;;;;;27.10;24.50;;;;;;;0.62;89.78;97627.72;109688;1273;22552;-70
2022/01/17 07:25:01;;;;;;;23.20;20.90;;;;;;;0.55;89.69;97638.20;109701;1274;22502;-71
2022/01/17 07:27:35;;;;;;;22.90;20.70;;;;;;;0.52;89.78;97634.88;109696;1273;22349;-71
2022/01/17 07:30:05;;;;;;;23.90;21.60;;;;;;;0.51;90.01;97653.15;109672;1274;23361;-71
2022/01/17 07:32:34;;;;;;;23.20;20.50;;;;;;;0.48;90.14;97653.58;109549;1274;137749;-67
2022/01/17 07:35:04;;;;;;;24.10;21.70;;;;;;;0.46;90.30;97645.47;109683;1273;23203;-68
2022/01/17 07:37:33;;;;;;;24.30;21.80;;;;;;;0.44;90.58;97620.30;109684;1273;23704;-67
2022/01/17 07:40:03;;;;;;;21.40;19.10;;;;;;;0.42;91.01;97573.86;109674;1274;22424;-69
2022/01/17 07:42:31;;;;;;;31.30;22.10;;;;;;;0.43;91.24;97561.78;109676;1274;23181;-68
2022/01/17 07:45:09;;;;;;;27.20;22.00;;;;;;;0.42;91.35;97537.02;109612;1274;23278;-68
2022/01/17 07:47:56;;;;;;;26.50;23.70;;;;;;;0.43;90.92;97536.12;109668;1273;23537;-66
2022/01/17 07:50:25;;;;;;;25.40;23.00;;;;;;;0.43;91.56;97536.27;109682;1273;23178;-67
2022/01/17 07:52:53;;;;;;;30.90;23.80;;;;;;;0.44;91.69;97523.99;109681;1274;22432;-69
2022/01/17 07:55:21;;;;;;;84.30;26.80;;;;;;;0.46;91.78;97531.66;109703;1274;22449;-68
2022/01/17 07:57:50;;;;;;;24.70;22.30;;;;;;;0.47;91.72;97527.91;109686;1274;22438;-72
2022/01/17 08:00:22;;;;;;;53.10;28.70;;;;;;;0.50;92.04;97515.94;109702;1273;22422;-70
2022/01/17 08:02:55;;;;;;;28.60;25.20;;;;;;;0.54;91.81;97504.21;109572;1274;137967;-69
2022/01/17 08:05:24;;;;;;;47.80;37.60;;;;;;;0.56;91.92;97495.84;109696;1274;23224;-70
2022/01/17 08:07:54;;;;;;;42.10;32.50;;;;;;;0.57;91.66;97474.77;109677;1273;22419;-70
2022/01/17 08:10:22;;;;;;;33.60;30.40;;;;;;;0.60;92.01;97465.21;109700;1273;23655;-69
2022/01/17 08:12:50;;;;;;;30.10;27.20;;;;;;;0.63;91.87;97453.59;109585;1273;22483;-68
2022/01/17 08:15:18;;;;;;;29.80;27.10;;;;;;;0.66;91.95;97427.63;109705;1274;22466;-71
2022/01/17 08:17:46;;;;;;;63.80;26.80;;;;;;;0.68;91.86;97421.36;109690;1272;22450;-68
2022/01/17 08:20:15;;;;;;;34.50;26.10;;;;;;;0.70;91.71;97417.88;109680;1274;22452;-69
2022/01/17 08:22:45;;;;;;;31.80;28.60;;;;;;;0.71;91.87;97417.52;109695;1274;22495;-69
2022/01/17 08:25:14;;;;;;;28.30;23.20;;;;;;;0.74;91.72;97426.52;109685;1274;22426;-69
2022/01/17 08:27:43;;;;;;;39.50;35.50;;;;;;;0.77;91.91;97415.73;109624;1274;22617;-68
2022/01/17 08:30:11;;;;;;;32.70;29.30;;;;;;;0.80;91.66;97429.88;109618;1274;22414;-69
2022/01/17 08:33:01;;;;;;;29.10;24.20;;;;;;;0.82;91.41;97444.05;109534;1274;138945;-68
2022/01/17 08:35:30;;;;;;;26.80;24.30;;;;;;;0.82;91.56;97460.78;109635;1274;22381;-70
2022/01/17 08:37:58;;;;;;;24.50;22.10;;;;;;;0.84;91.79;97447.95;109672;1274;22462;-70
2022/01/17 08:40:27;;;;;;;26.70;24.30;;;;;;;0.86;91.48;97396.05;109654;1274;22409;-70
2022/01/17 08:42:55;;;;;;;28.70;26.00;;;;;;;0.87;91.46;97387.80;109630;1274;23500;-69
2022/01/17 08:45:24;;;;;;;25.90;23.60;;;;;;;0.91;91.40;97387.41;109630;1274;23266;-69
2022/01/17 08:48:12;;;;;;;25.70;23.30;;;;;;;0.94;91.30;97376.60;109637;1272;23168;-69
2022/01/17 08:50:42;;;;;;;25.80;23.30;;;;;;;0.96;91.36;97379.07;109672;1273;22578;-69
2022/01/17 08:53:13;;;;;;;26.00;23.40;;;;;;;1.00;91.17;97378.48;109639;1273;22563;-69
2022/01/17 08:55:43;;;;;;;22.20;20.00;;;;;;;1.05;91.03;97351.05;109661;1273;23169;-68
2022/01/17 08:58:13;;;;;;;25.70;23.30;;;;;;;1.07;90.78;97352.98;109646;1274;22653;-69
2022/01/17 09:00:42;;;;;;;27.40;24.50;;;;;;;1.07;90.93;97348.05;109652;1274;22436;-69
2022/01/17 09:03:20;;;;;;;24.80;22.40;;;;;;;1.07;91.00;97362.63;109642;1272;22550;-69
2022/01/17 09:05:49;;;;;;;26.30;23.70;;;;;;;1.08;90.91;97359.57;109650;1272;22441;-68
2022/01/17 09:08:18;;;;;;;24.50;22.00;;;;;;;1.09;90.92;97335.75;109654;1272;23151;-67
2022/01/17 09:10:48;;;;;;;24.40;22.00;;;;;;;1.10;90.87;97320.42;109668;1274;22554;-68
2022/01/17 09:13:17;;;;;;;25.10;22.70;;;;;;;1.10;90.95;97334.38;109650;1272;22617;-70
2022/01/17 09:15:46;;;;;;;31.10;28.20;;;;;;;1.07;91.15;97338.33;109692;1273;22268;-68
2022/01/17 09:18:15;;;;;;;23.90;21.50;;;;;;;1.04;91.19;97330.13;109645;1274;22671;-68
2022/01/17 09:20:43;;;;;;;27.00;24.40;;;;;;;1.02;91.21;97332.23;109675;1274;22464;-68
2022/01/17 09:23:12;;;;;;;24.00;21.80;;;;;;;1.01;91.08;97326.06;109657;1274;22462;-68
2022/01/17 09:25:40;;;;;;;27.00;24.50;;;;;;;0.99;91.36;97314.42;109661;1273;23185;-68
2022/01/17 09:28:08;;;;;;;23.60;21.40;;;;;;;0.94;91.69;97319.52;109672;1273;23072;-67
2022/01/17 09:30:37;;;;;;;23.20;20.90;;;;;;;0.90;91.80;97327.30;109679;1274;22443;-68
2022/01/17 09:33:06;;;;;;;25.00;22.60;;;;;;;0.85;91.86;97310.33;109649;1273;23828;-68
2022/01/17 09:35:34;;;;;;;28.20;25.60;;;;;;;0.81;91.88;97312.62;109646;1273;22433;-68
2022/01/17 09:38:04;;;;;;;24.70;22.30;;;;;;;0.78;92.12;97295.45;109671;1273;22490;-68
2022/01/17 09:40:33;;;;;;;26.50;23.90;;;;;;;0.76;91.95;97272.69;109655;1274;22491;-67
2022/01/17 09:43:22;;;;;;;23.50;21.40;;;;;;;0.71;92.39;97267.39;109559;1273;138275;-68
2022/01/17 09:45:51;;;;;;;25.10;22.60;;;;;;;0.70;92.29;97260.05;109602;1274;22493;-67
2022/01/17 09:48:22;;;;;;;23.80;21.40;;;;;;;0.70;92.85;97261.47;109656;1274;23490;-65
2022/01/17 09:51:05;;;;;;;22.80;20.60;;;;;;;0.71;92.78;97247.60;109660;1272;22570;-68
2022/01/17 09:53:38;;;;;;;22.60;20.40;;;;;;;0.71;93.45;97245.65;109592;1274;22527;-68
2022/01/17 09:56:08;;;;;;;22.80;20.40;;;;;;;0.74;93.47;97253.73;109682;1274;22457;-68
2022/01/17 09:58:40;;;;;;;21.90;19.70;;;;;;;0.73;93.26;97247.77;109667;1272;22436;-66
2022/01/17 10:01:09;;;;;;;22.00;19.70;;;;;;;0.72;93.53;97243.41;109581;1274;22280;-70
2022/01/17 10:03:39;;;;;;;19.90;17.90;;;;;;;0.72;93.78;97235.94;109665;1273;23252;-67
2022/01/17 10:06:08;;;;;;;19.80;17.70;;;;;;;0.74;93.70;97220.36;109656;1272;22457;-68
2022/01/17 10:08:36;;;;;;;19.80;18.00;;;;;;;0.75;93.88;97220.06;109654;1273;23283;-68
2022/01/17 10:11:14;;;;;;;20.50;17.90;;;;;;;0.77;93.93;97220.98;109672;1272;22559;-67
2022/01/17 10:13:45;;;;;;;19.50;17.50;;;;;;;0.79;93.84;97205.02;109647;1272;22585;-68
2022/01/17 10:16:20;;;;;;;18.20;16.30;;;;;;;0.83;94.09;97204.21;109651;1272;23147;-68
2022/01/17 10:19:00;;;;;;;17.90;16.20;;;;;;;0.86;94.44;97190.98;109652;1274;23176;-70
2022/01/17 10:21:39;;;;;;;18.30;16.40;;;;;;;0.87;94.67;97206.73;109652;1273;23201;-68
2022/01/17 10:24:26;;;;;;;16.90;15.10;;;;;;;0.89;94.49;97206.23;109592;1274;23207;-69
2022/01/17 10:27:25;;;;;;;16.60;14.90;;;;;;;0.93;94.39;97196.65;109607;1274;22533;-67
2022/01/17 10:30:22;;;;;;;17.40;15.50;;;;;;;0.97;94.56;97188.45;109673;1274;22416;-68
2022/01/17 10:35:37;;;;;;;19.10;17.20;;;;;;;1.05;94.46;97195.52;109677;1273;22489;-69
2022/01/17 10:38:30;;;;;;;18.70;16.80;;;;;;;1.07;94.66;97183.81;109618;1274;23177;-66
2022/01/17 10:41:01;;;;;;;16.30;14.70;;;;;;;1.09;94.74;97174.48;109523;1274;22584;-68
2022/01/17 10:43:38;;;;;;;16.50;15.00;;;;;;;1.10;94.33;97177.89;109446;1274;22448;-69
2022/01/17 10:46:09;;;;;;;16.90;15.30;;;;;;;1.11;94.32;97174.45;109445;1273;22462;-67
2022/01/17 10:48:43;;;;;;;22.40;20.40;;;;;;;1.09;94.46;97175.02;109310;1274;138368;-68
2022/01/17 10:51:32;;;;;;;16.90;15.40;;;;;;;1.09;94.33;97151.93;109540;1272;22799;-66
2022/01/17 10:54:14;;;;;;;18.00;16.30;;;;;;;1.09;94.20;97147.27;109638;1273;22399;-67
2022/01/17 10:57:04;;;;;;;18.30;16.60;;;;;;;1.09;94.30;97149.66;109668;1273;22452;-66
2022/01/17 10:59:51;;;;;;;18.80;17.10;;;;;;;1.08;94.26;97136.54;109678;1273;22411;-70
2022/01/17 11:02:24;;;;;;;15.40;13.90;;;;;;;1.09;94.59;97156.40;109601;1273;22340;-68
2022/01/17 11:04:53;;;;;;;19.50;17.80;;;;;;;1.09;94.47;97142.13;109664;1273;22553;-68
2022/01/17 11:07:28;;;;;;;15.30;13.80;;;;;;;1.10;94.36;97141.27;109684;1272;22553;-70
2022/01/17 11:10:07;;;;;;;21.60;19.40;;;;;;;1.10;94.71;97142.49;109675;1273;22550;-68
2022/01/17 11:12:41;;;;;;;18.90;17.20;;;;;;;1.11;94.51;97133.00;109587;1274;22558;-69
2022/01/17 11:15:15;;;;;;;17.80;16.10;;;;;;;1.12;94.57;97125.10;109674;1274;22432;-69
2022/01/17 11:17:52;;;;;;;23.20;21.00;;;;;;;1.15;94.65;97134.14;109666;1273;22332;-68
2022/01/17 11:20:23;;;;;;;21.20;19.20;;;;;;;1.17;94.61;97144.27;109654;1273;23224;-69
2022/01/17 11:22:57;;;;;;;15.50;13.80;;;;;;;1.17;94.54;97120.99;109675;1274;22535;-70
2022/01/17 11:25:31;;;;;;;23.80;21.70;;;;;;;1.20;94.41;97115.55;109689;1274;22420;-71
2022/01/17 11:28:10;;;;;;;19.90;17.90;;;;;;;1.21;94.44;97115.92;109661;1274;22478;-68
2022/01/17 11:30:46;;;;;;;34.00;30.60;;;;;;;1.21;94.65;97132.02;109672;1273;22478;-70
2022/01/17 11:33:18;;;;;;;20.60;18.50;;;;;;;1.22;94.84;97131.10;109659;1273;22269;-68
2022/01/17 11:35:52;;;;;;;18.10;14.30;;;;;;;1.26;94.70;97123.63;109661;1273;22330;-67
2022/01/17 11:38:30;;;;;;;15.70;14.10;;;;;;;1.28;94.82;97139.95;109424;1274;139665;-68
2022/01/17 11:41:05;;;;;;;18.00;16.20;;;;;;;1.30;94.80;97108.39;109659;1274;22788;-68
2022/01/17 11:43:37;;;;;;;;;;;;;;;1.33;94.60;97103.98;109685;1274;22473;-68
2022/01/17 11:46:17;;;;;;;20.90;18.70;;;;;;;1.34;94.60;97097.08;109609;1274;22438;-68
2022/01/17 11:49:03;;;;;;;18.70;16.90;;;;;;;1.38;94.50;97092.70;109660;1272;22346;-69
2022/01/17 11:51:46;;;;;;;33.00;29.50;;;;;;;1.40;94.81;97090.84;109682;1273;22530;-67